投稿到民航资源网

外航一周空中运行事件综述(10.26-11.1)

 2015-11-02 来源:民航资源网 作者:罗石  [投稿排行榜]
2015-11-03 16:00:25

我来说两句(0) 分享

外航一周空中运行事件综述(10.26-11.1)

  外航一周空中运行事件综述(10.26-11.1)

      本综述尽可能收集国外航空公司一周空中运行事件,并根据已有信息对事件综述,供各位民航工作者参考借鉴。

      10月26日

      马来西亚之翼航空公司注册号9M-SSD的DHC-6-400飞机,执行从米里到木胶(马来西亚)的MH-3553航班。当地时间09:20(世界协调时01:20)飞机在木胶08号跑道着陆时偏离跑道并停在草地上,左轮胎爆胎。无人员受伤,飞机左轮受到损伤。

     

      天气报文显示事发时有小雨,跑道道面或湿滑。

      WBGS 260200Z 03002KT 9999 FEW008 SCT016 BKN150 25/24 Q1012

      WBGS 260100Z 08001KT 9999 -RA FEW008 SCT018 BKN140 24/23 Q1012

      标签:冲出跑道

      南非商务航空公司(Comair)注册号ZS-OAA的波音737-400飞机(机龄22.5年),执行从伊丽莎白港到约翰内斯堡(南非)的MN-6234航班。当地时间12:00(世界协调时10:00)飞机在约翰内斯堡03右跑道着陆时,左起落架折断,机尾、左发动机和左翼尖触地。无人员受伤,飞机受损严重。事发时天气良好。

      FAOR 261000Z VRB05KT 9999 FEW045 26/04 Q1029 NOSIG

      标签:起落架折断

      奥地利尼基航空公司注册号OE-LEY的空客A320-200飞机(机龄2.4年),执行从拉纳卡(塞浦路斯)到维也纳(奥地利)的HG-2185航班。飞机从拉纳卡离场爬升通过30000英尺高度时,机组停止爬升并报告驾驶舱出现烟雾,飞机下降至20000英尺后,机组宣布紧急状态并备降安塔利亚,停止爬升约25分钟后飞机在36右跑道安全着陆。

      标签:飞机烟雾

      德国之翼航空公司注册号D-AIPY的空客A320-200飞机(机龄24.8年),执行从柏林泰格尔机场科隆波恩机场(德国)的4U-11航班。飞机从泰格尔机场08号跑道离场爬升时,机组在约5000英尺高度停止爬升并报告遭遇鸟击,随后返航泰格尔机场,离场约15分钟后飞机在08号跑道安全着陆。

      标签:飞机鸟击

      布鲁塞尔航空公司注册号OO-SSV的空客A319-100飞机(机龄11.7年),执行从维也纳到布鲁塞尔的SN-2906航班。飞机从维也纳29号跑道离场爬升时,机组在7000英尺高度停止爬升,并报告左侧发动机失效,机组关闭发动机后返航维也纳,离场约20分钟后飞机在16号跑道安全着陆。

      后续航班被取消。

      标签:机械故障

      瑞安航空公司注册号EI-ESL的波音737-800飞机(机龄4.2年),执行从里加到布鲁塞尔沙勒罗瓦机场(比利时)的FR-8086航班。飞机从里加36号跑道离场爬升时,机组在9000英尺高度停止爬升并报告1号发动机疑似燃油泄漏,机组决定返航里加,离场约18分钟后飞机在36号跑道安全着陆。

      航班换飞机执行,延误2小时后到达布鲁塞尔。

      标签:燃油泄漏

      俄罗斯奥伦堡航空公司(Orenair)注册号VQ-BNU的波音777-200飞机(机龄16.3年),执行从沙姆沙伊赫(埃及)到莫斯科伏努科沃机场的R2-508航班。飞机从沙姆沙伊赫04左跑道离场。航路飞行时机组被告知在起飞机场跑道上发现了其轮胎碎片。机组决定继续飞往莫斯科,在伏努科沃机场进近时,机组请求应急服务部门待命,随后飞机在伏努科沃机场19号跑道安全着陆。

      标签:飞机爆胎

      意大利航空公司注册号I-WEBA的空客A320-200飞机(机龄8.5年),执行从米兰李罗德机场到巴里(意大利)的AZ-1637航班。飞机在巴里07号跑道进近时遭遇鸟击,导致襟翼受损。随后飞机在07号跑道安全着陆。

      标签:飞机鸟击

      10月27日

      英国航空公司注册号G-EUPH的空客A319-100飞机(机龄15.6年),执行从贝尔法斯特城市机场到伦敦希斯罗机场的BA-1421航班。飞机从贝尔法斯特城市机场22号跑道离场爬升,起落架刚收上时传出一声巨响。机组在6000英尺高度停止爬升并备降贝尔法斯特国际机场,离场约40分钟后飞机在25号跑道安全着陆。后续航班被取消。

      乘客称起落架收起时听到一声巨响,随后被告知发动机故障。

      标签:机械故障

      美国西南航空公司注册号N614SW的波音737-300飞机(机龄20.1年),执行从圣何塞到安大略(美国)的WN-386航班。飞机在圣何塞30右跑道加速起飞时右发动机吸入飞鸟,机组在高速阶段中断起飞,随后安全减速并滑行至停机坪。

      航班换飞机执行,延误90分钟后到达安大略。

      标签:飞机鸟击

      美国西南航空公司注册号N718SW的波音737-700飞机(机龄17.4年),执行从奥斯汀到纽瓦克的WN-389航班。飞机从奥斯汀35右跑道离场爬升时,右发动机吸入一只飞鸟。飞机无异常指示,机组保持正常通讯并继续飞往纽瓦克,大约3小时后飞机安全着陆。

      标签:飞机鸟击

      瑞安航空公司注册号EI-EBD的波音737-800飞机(机龄6.8年),执行从法兰克福哈恩机场(德国)到瓦伦西亚(西班牙)的FR-9834航班。飞机在巴黎奥利机场南部约40海里,高度36000英尺时,机组报告液压系统故障并决定备降布鲁塞尔沙勒罗瓦机场(比利时)。飞机下降至32000英尺高度并向北转弯,大约45分钟后飞机在沙勒罗瓦机场安全着陆。

      航班换飞机执行,延误4小时后到达瓦伦西亚。

      标签:液压系统故障

      10月28日

      美国共和航空公司注册号N102HQ的ERJ-175飞机(机龄8.8年),执行从费城到杰克逊维尔(美国)的YX-4488航班。飞机在罗利达勒姆机场东北部约150海里,高度34000英尺时,机组报告驾驶舱出现烟雾。飞机下降至20000英尺高度后备降罗利达勒姆机场,离开34000英尺高度约40分钟后,飞机在23右跑道安全着陆,在跑道上停止后被拖至停机位。

     

      航班换飞机执行,延误5小时后到达杰克逊维尔。

      标签:飞机烟雾

      10月29日

      美国动力航空公司注册号N251MY的波音767-200飞机(机龄29.8年),执行从劳德代尔堡(美国)到加拉加斯(委内瑞拉)的2D-405航班。飞机在劳德代尔堡机场滑行时起火。左侧发动机及部分机翼被烧毁。乘客及机组通过滑梯紧急撤离飞机,火焰随后被扑灭。15人被送往医院,飞机严重受损。

     

      民航资源网相关链接:客机滑行时燃油泄漏起大火 数十人受伤

      标签:发动机起火

      葡萄牙航空公司注册号CS-TOC的空客A340-300飞机(机龄20.7年),执行从里斯本到累西腓(巴西)的TP-15航班。飞机从里斯本离场爬升后,机组在24000英尺高度停止爬升并报告货舱起火指示。飞机随后返航里斯本,离场约40分钟后安全着陆。应急服务部门未发现火情和高温的迹象。

      航班换飞机执行,延误2小时45分钟后到达累西腓。

      标签:飞机烟雾

      俄罗斯航空公司注册号VP-BWF的空客A320-200飞机(机龄12年),执行从罗斯托夫到莫斯科谢列梅捷沃(俄罗斯)的SU-1165航班。飞机在罗斯托夫04号跑道加速起飞时,一台发动机吸入飞鸟迫使机组在高速阶段中断起飞。飞机安全减速后返回停机坪。

      标签:飞机鸟击

      10月30日

      达美航空公司注册号N658DL的波音757-200飞机(机龄25.5年),执行从波特兰到盐湖城的DL-1831航班。飞机从波特兰10左跑道离场爬升时,机组在21000英尺高度停止爬升,并报告发动机失控,机组关闭发动机后返航波特兰,离场约40分钟后飞机在10右跑道安全着陆。航班换飞机执行。

      标签:机械故障

      美国西南航空公司注册号N697SW的波音737-300飞机(机龄27.8年),执行从罗利达勒姆机场到坦帕(美国)的WN-2573航班。飞机从达勒姆机场23左跑道离场爬升时,机组在3000英尺高度停止爬升,报告在500英尺处遭遇鸟击并请求返航。离场约10分钟后飞机在23左跑道安全着陆。

      航班换飞机执行,延误5小时后到达坦帕。

      标签:飞机鸟击

      10月31日

      土耳其航空公司注册号TC-JYD的波音737-900飞机(机龄3.5年),执行从伊斯坦布尔到雅温得(喀麦隆)的TK-679航班。在突尼斯东南150海里34000英尺时,飞机燃油系统供油故障,机组决定备降突尼斯并安全落地。落地后2小时飞机再次起飞并安全落地雅温得。

      标签:燃油系统故障

      11月1日

      捷克航空公司注册号OK-MEK的空客A319-100(机龄8.7年),执行从阿姆斯特丹到布拉格的OK-619航班。飞机起飞爬升到29000英尺后,飞机右侧发动机发出一声巨响,发动机振动。机组停止爬升并返航阿姆斯特丹。20分钟后飞机落地,右侧发动机很响。

      标签:飞机故障

    1荐闻榜

    更多文章和观点请访问罗石专题

    发表评论
    发表请先 登陆/注册

    严禁发布攻击他人、言语粗俗、涉及政治等违反规定的言论,违者法办!